Time;durP1;ratioP1;P1;durP2;ratioP2;P2;SDS_P1;SDS_P2;PMS_P1;PMS_P2;Temp;Humidity;BMP_temperature;BMP_pressure;BME280_temperature;BME280_humidity;BME280_pressure;Samples;Min_cycle;Max_cycle;Signal;HPM_P1;HPM_P2
2023/01/30 00:01:46;;;;;;;49.90;26.38;;;5.00;73.50;;;;;;5071700;28;20386;-73
2023/01/30 00:04:12;;;;;;;49.05;26.20;;;5.00;73.30;;;;;;5071422;28;20411;-73
2023/01/30 00:06:40;;;;;;;53.00;27.60;;;5.00;74.30;;;;;;5071501;28;20749;-74
2023/01/30 00:09:06;;;;;;;52.30;26.35;;;5.00;73.90;;;;;;5071334;28;20380;-72
2023/01/30 00:11:32;;;;;;;50.17;25.98;;;5.00;74.20;;;;;;5071247;28;20376;-74
2023/01/30 00:13:58;;;;;;;52.53;26.77;;;5.00;75.00;;;;;;5071355;28;20398;-74
2023/01/30 00:16:24;;;;;;;50.05;27.85;;;5.10;74.90;;;;;;5069797;28;20422;-74
2023/01/30 00:18:50;;;;;;;55.03;28.70;;;5.00;75.20;;;;;;5071342;28;20376;-74
2023/01/30 00:21:16;;;;;;;50.33;27.13;;;5.00;76.70;;;;;;5071042;28;20916;-71
2023/01/30 00:23:42;;;;;;;49.33;27.63;;;5.00;77.00;;;;;;5071231;28;20782;-75
2023/01/30 00:26:08;;;;;;;51.53;27.27;;;5.00;76.70;;;;;;5071183;28;20376;-74
2023/01/30 00:28:34;;;;;;;47.63;26.07;;;5.00;76.70;;;;;;5071092;28;20383;-72
2023/01/30 00:31:00;;;;;;;53.45;28.20;;;5.00;77.50;;;;;;5070857;28;20867;-72
2023/01/30 00:33:26;;;;;;;52.00;26.60;;;5.10;77.70;;;;;;5071278;28;20934;-72
2023/01/30 00:35:53;;;;;;;50.47;26.40;;;5.00;78.50;;;;;;5070907;28;20764;-74
2023/01/30 00:38:19;;;;;;;47.27;26.60;;;5.10;79.00;;;;;;5069515;28;20467;-74
2023/01/30 00:40:46;;;;;;;51.50;26.45;;;5.10;78.80;;;;;;5071100;28;20756;-74
2023/01/30 00:48:43;;;;;;;52.40;27.70;;;5.20;79.60;;;;;;5070881;28;20368;-72
2023/01/30 00:51:09;;;;;;;50.30;27.73;;;5.20;79.90;;;;;;5070540;28;20869;-73
2023/01/30 00:53:34;;;;;;;53.60;28.20;;;5.30;78.70;;;;;;5071053;28;20388;-73
2023/01/30 00:56:00;;;;;;;48.83;26.43;;;5.20;79.80;;;;;;5070862;28;20403;-75
2023/01/30 00:58:25;;;;;;;54.53;27.83;;;5.30;80.20;;;;;;5071082;28;20857;-72
2023/01/30 01:00:51;;;;;;;50.70;27.30;;;5.30;79.80;;;;;;5070763;28;20809;-72
2023/01/30 01:03:18;;;;;;;52.80;28.02;;;5.40;79.80;;;;;;5070915;28;20779;-73
2023/01/30 01:05:44;;;;;;;50.20;27.23;;;5.40;78.40;;;;;;5070791;28;20411;-73
2023/01/30 01:08:10;;;;;;;53.88;27.08;;;5.40;79.30;;;;;;5070826;28;20569;-73
2023/01/30 01:10:36;;;;;;;50.28;28.60;;;5.30;80.80;;;;;;5070646;28;20379;-72
2023/01/30 01:13:02;;;;;;;54.05;27.75;;;5.40;81.00;;;;;;5070257;28;20387;-73
2023/01/30 01:15:28;;;;;;;51.78;27.67;;;5.40;81.60;;;;;;5070725;28;20383;-71
2023/01/30 01:17:54;;;;;;;50.00;26.67;;;5.40;82.30;;;;;;5070422;28;20426;-72
2023/01/30 01:20:21;;;;;;;50.70;27.63;;;5.40;82.00;;;;;;5070937;28;20868;-71
2023/01/30 01:22:49;;;;;;;51.78;27.73;;;5.50;81.80;;;;;;5069050;28;20407;-72
2023/01/30 01:25:15;;;;;;;48.15;26.88;;;5.50;81.40;;;;;;5071155;28;20376;-73
2023/01/30 01:27:41;;;;;;;48.35;26.70;;;5.50;81.30;;;;;;5071027;28;20466;-72
2023/01/30 01:30:07;;;;;;;45.67;26.00;;;5.50;80.70;;;;;;5070615;28;20889;-74
2023/01/30 01:32:33;;;;;;;46.22;26.08;;;5.60;80.90;;;;;;5070566;28;20382;-74
2023/01/30 01:34:59;;;;;;;51.60;29.00;;;5.60;80.30;;;;;;5070642;28;20745;-72
2023/01/30 01:37:24;;;;;;;46.33;25.67;;;5.60;79.80;;;;;;5071825;28;20453;-73
2023/01/30 01:42:37;;;;;;;48.30;26.85;;;5.70;79.70;;;;;;5071667;28;20918;-73
2023/01/30 01:45:14;;;;;;;51.10;27.48;;;5.70;80.10;;;;;;5072491;28;20386;-73
2023/01/30 01:47:52;;;;;;;46.78;26.35;;;5.60;80.40;;;;;;5070778;28;20383;-72
2023/01/30 01:50:22;;;;;;;48.40;26.85;;;5.70;80.70;;;;;;5072676;28;20437;-74
2023/01/30 01:52:51;;;;;;;46.47;25.70;;;5.70;81.10;;;;;;5074175;28;20387;-73
2023/01/30 01:55:20;;;;;;;45.33;25.35;;;5.70;80.00;;;;;;5072618;28;20479;-73
2023/01/30 01:58:07;;;;;;;43.70;25.05;;;5.80;79.50;;;;;;5073868;28;20384;-71
2023/01/30 02:00:32;;;;;;;50.40;26.33;;;5.70;80.00;;;;;;5074056;28;20490;-72
2023/01/30 02:03:03;;;;;;;44.20;25.40;;;5.70;81.10;;;;;;5073860;28;20467;-71
2023/01/30 02:05:32;;;;;;;45.05;26.50;;;5.70;81.50;;;;;;5075071;28;20947;-72
2023/01/30 02:08:21;;;;;;;44.50;24.77;;;5.70;82.50;;;;;;5089546;28;20399;-72
2023/01/30 02:11:14;;;;;;;44.10;25.33;;;5.80;83.00;;;;;;5075143;28;20429;-71
2023/01/30 02:13:40;;;;;;;49.90;26.40;;;5.70;83.50;;;;;;5072487;28;20383;-72
2023/01/30 02:16:07;;;;;;;47.93;26.27;;;5.80;83.90;;;;;;5073671;28;20868;-71
2023/01/30 02:18:36;;;;;;;50.45;25.80;;;5.80;84.10;;;;;;5073595;28;20376;-71
2023/01/30 02:21:42;;;;;;;45.42;25.35;;;5.70;84.70;;;;;;5072845;28;20860;-72
2023/01/30 02:24:42;;;;;;;46.83;26.98;;;5.70;84.60;;;;;;5071772;28;20392;-72
2023/01/30 02:27:15;;;;;;;44.15;25.80;;;5.80;84.40;;;;;;5072983;28;20384;-71
2023/01/30 02:30:17;;;;;;;48.70;25.95;;;5.80;84.30;;;;;;5073185;28;20385;-71
2023/01/30 02:32:55;;;;;;;46.28;25.70;;;5.80;84.50;;;;;;5072843;28;20375;-71
2023/01/30 02:35:29;;;;;;;46.08;25.60;;;5.80;84.40;;;;;;5073294;28;20384;-73
2023/01/30 02:38:29;;;;;;;48.40;27.42;;;5.80;85.30;;;;;;5073119;28;20880;-72
2023/01/30 02:41:25;;;;;;;46.67;25.73;;;5.70;86.90;;;;;;5072707;28;20915;-72
2023/01/30 02:43:58;;;;;;;46.67;26.60;;;5.70;87.40;;;;;;5071324;28;20468;-72
2023/01/30 02:46:31;;;;;;;49.05;25.63;;;5.80;87.80;;;;;;5071513;28;20467;-72
2023/01/30 02:49:05;;;;;;;48.80;26.27;;;5.70;88.60;;;;;;5072561;28;20394;-72
2023/01/30 02:51:36;;;;;;;45.33;25.40;;;5.70;89.20;;;;;;5072524;28;20893;-71
2023/01/30 02:54:05;;;;;;;48.00;24.63;;;5.80;89.20;;;;;;5072426;28;20388;-71
2023/01/30 02:56:46;;;;;;;45.92;25.13;;;5.80;88.50;;;;;;5072444;28;20412;-73
2023/01/30 02:59:14;;;;;;;51.92;25.38;;;5.80;88.90;;;;;;5072486;28;20380;-71
2023/01/30 03:01:53;;;;;;;51.15;26.63;;;5.80;90.00;;;;;;5071858;28;20441;-71
2023/01/30 03:04:38;;;;;;;45.60;25.27;;;5.80;89.80;;;;;;5072246;28;20697;-71
2023/01/30 03:07:26;;;;;;;43.65;25.13;;;5.80;89.40;;;;;;5072395;28;20414;-71
2023/01/30 03:10:33;;;;;;;43.67;25.52;;;5.80;89.00;;;;;;5072244;28;20466;-72
2023/01/30 03:13:12;;;;;;;46.28;24.85;;;5.90;89.70;;;;;;5060853;28;20386;-71
2023/01/30 03:15:44;;;;;;;44.43;24.50;;;5.90;89.10;;;;;;5072575;28;20747;-70
2023/01/30 03:18:10;;;;;;;45.85;24.92;;;5.90;89.60;;;;;;5072605;28;20398;-70
2023/01/30 03:20:37;;;;;;;46.70;25.00;;;5.90;88.70;;;;;;5072879;28;20400;-71
2023/01/30 03:23:03;;;;;;;45.58;24.73;;;5.90;89.00;;;;;;5072341;28;20907;-72
2023/01/30 03:25:29;;;;;;;45.90;25.10;;;5.90;89.20;;;;;;5073224;28;20388;-73
2023/01/30 03:27:55;;;;;;;42.33;24.13;;;5.90;89.20;;;;;;5073292;28;20388;-72
2023/01/30 03:30:23;;;;;;;45.05;23.75;;;6.00;89.10;;;;;;5075520;28;20795;-72
2023/01/30 03:32:49;;;;;;;39.15;22.60;;;5.90;89.00;;;;;;5078819;28;20383;-71
2023/01/30 03:35:16;;;;;;;42.67;23.60;;;6.00;89.30;;;;;;5086446;28;20375;-71
2023/01/30 03:37:43;;;;;;;46.13;24.65;;;6.00;89.40;;;;;;5092248;28;20903;-72
2023/01/30 03:40:10;;;;;;;44.13;25.00;;;6.00;89.50;;;;;;5091271;28;20387;-71
2023/01/30 03:42:35;;;;;;;46.55;25.33;;;6.00;90.40;;;;;;5089689;28;20407;-71
2023/01/30 03:45:01;;;;;;;45.22;25.00;;;6.00;89.90;;;;;;5078056;28;20941;-71
2023/01/30 03:47:26;;;;;;;46.25;25.85;;;6.00;90.20;;;;;;5071680;28;20380;-71
2023/01/30 03:49:52;;;;;;;49.25;26.52;;;6.00;91.60;;;;;;5071491;28;20535;-72
2023/01/30 03:52:18;;;;;;;43.13;25.02;;;6.00;92.30;;;;;;5070960;28;20388;-73
2023/01/30 03:54:43;;;;;;;48.45;25.25;;;6.00;93.00;;;;;;5071680;28;20380;-71
2023/01/30 03:57:09;;;;;;;45.30;25.33;;;6.00;93.20;;;;;;5071519;28;20425;-71
2023/01/30 03:59:34;;;;;;;45.40;24.85;;;6.10;92.40;;;;;;5071555;28;20411;-70
2023/01/30 04:02:00;;;;;;;43.67;24.50;;;6.10;92.60;;;;;;5071252;28;20414;-72
2023/01/30 04:04:25;;;;;;;46.38;24.38;;;6.10;93.10;;;;;;5071518;28;20540;-73
2023/01/30 04:06:51;;;;;;;46.70;24.85;;;6.10;93.40;;;;;;5071758;28;20409;-71
2023/01/30 04:09:16;;;;;;;44.42;25.30;;;6.10;93.10;;;;;;5072072;28;20429;-72
2023/01/30 04:11:42;;;;;;;41.67;24.50;;;6.10;93.80;;;;;;5071629;28;21023;-72
2023/01/30 04:14:07;;;;;;;42.97;24.37;;;6.10;94.90;;;;;;5072555;28;20431;-73
2023/01/30 04:16:33;;;;;;;47.30;25.13;;;6.10;94.60;;;;;;5072584;28;20392;-73
2023/01/30 04:18:58;;;;;;;45.47;26.03;;;6.10;95.90;;;;;;5072247;28;20462;-72
2023/01/30 04:21:24;;;;;;;49.00;26.50;;;6.10;96.40;;;;;;5071689;28;20391;-71
2023/01/30 04:23:49;;;;;;;47.40;26.20;;;6.10;96.60;;;;;;5072513;28;20714;-71
2023/01/30 04:26:15;;;;;;;42.13;25.57;;;6.10;96.70;;;;;;5072132;28;20395;-72
2023/01/30 04:28:43;;;;;;;44.37;24.80;;;6.10;95.90;;;;;;5073520;28;20386;-73
2023/01/30 04:31:08;;;;;;;42.13;25.13;;;6.10;96.10;;;;;;5075329;28;20396;-73
2023/01/30 04:33:34;;;;;;;43.97;26.35;;;6.10;95.80;;;;;;5074092;28;20408;-72
2023/01/30 04:36:01;;;;;;;42.97;24.85;;;6.10;96.60;;;;;;5075126;28;20397;-72
2023/01/30 04:38:29;;;;;;;45.60;25.83;;;6.10;96.90;;;;;;5076101;28;20399;-73
2023/01/30 04:40:56;;;;;;;46.22;24.33;;;6.20;97.50;;;;;;5077552;28;20415;-73
2023/01/30 04:43:23;;;;;;;46.22;25.55;;;6.20;98.30;;;;;;5070122;28;20396;-73
2023/01/30 04:45:50;;;;;;;43.13;25.77;;;6.10;99.70;;;;;;5071117;28;20741;-73
2023/01/30 04:48:16;;;;;;;46.08;25.63;;;6.10;99.90;;;;;;5070888;28;20392;-72
2023/01/30 04:50:43;;;;;;;44.30;25.25;;;6.10;99.90;;;;;;5070671;28;20757;-72
2023/01/30 04:53:10;;;;;;;49.63;25.30;;;6.10;99.90;;;;;;5070594;28;20391;-71
2023/01/30 04:55:35;;;;;;;41.70;24.42;;;6.10;99.90;;;;;;5070704;28;20388;-71
2023/01/30 04:58:01;;;;;;;42.25;24.80;;;6.20;99.90;;;;;;5070788;28;20521;-71
2023/01/30 05:00:27;;;;;;;40.90;25.43;;;6.20;99.90;;;;;;5070396;28;20537;-71
2023/01/30 05:02:54;;;;;;;42.53;25.80;;;6.20;99.90;;;;;;5070810;28;20718;-72
2023/01/30 05:05:21;;;;;;;46.20;26.70;;;6.20;99.90;;;;;;5071463;28;20461;-73
2023/01/30 05:07:47;;;;;;;49.33;25.47;;;6.10;99.90;;;;;;5071391;28;20474;-72
2023/01/30 05:10:13;;;;;;;46.05;27.00;;;6.20;99.90;;;;;;5071446;28;20422;-73
2023/01/30 05:12:38;;;;;;;46.83;25.30;;;6.10;99.90;;;;;;5071619;28;20869;-71
2023/01/30 05:15:05;;;;;;;46.30;26.50;;;6.10;99.90;;;;;;5072040;28;20401;-72
2023/01/30 05:17:31;;;;;;;44.35;25.42;;;6.10;99.90;;;;;;5074798;28;20444;-71
2023/01/30 05:19:57;;;;;;;48.30;26.52;;;6.20;99.90;;;;;;5072378;28;20486;-71
2023/01/30 05:22:23;;;;;;;45.00;25.35;;;6.20;99.90;;;;;;5070300;28;20467;-72
2023/01/30 05:24:48;;;;;;;44.53;24.35;;;6.20;99.90;;;;;;5072685;28;20375;-71
2023/01/30 05:27:14;;;;;;;41.45;24.75;;;6.10;99.90;;;;;;5074398;28;20437;-71
2023/01/30 05:29:40;;;;;;;42.88;24.45;;;6.20;99.90;;;;;;5074170;28;20384;-71
2023/01/30 05:32:05;;;;;;;40.72;22.13;;;6.20;99.90;;;;;;5073891;28;20395;-71
2023/01/30 05:34:31;;;;;;;40.83;21.93;;;6.20;99.90;;;;;;5074252;28;20775;-72
2023/01/30 05:36:56;;;;;;;36.03;21.27;;;6.20;99.90;;;;;;5073959;28;20465;-71
2023/01/30 05:39:22;;;;;;;35.13;21.33;;;6.20;99.90;;;;;;5074068;28;20384;-72
2023/01/30 05:41:47;;;;;;;35.73;22.27;;;6.30;99.90;;;;;;5073987;28;20394;-72
2023/01/30 05:44:13;;;;;;;38.30;20.63;;;6.20;99.90;;;;;;5074154;28;20391;-71
2023/01/30 05:46:39;;;;;;;37.10;21.53;;;6.20;99.90;;;;;;5074509;28;20375;-74
2023/01/30 05:49:06;;;;;;;36.63;21.50;;;6.30;99.90;;;;;;5073324;28;20395;-72
2023/01/30 05:51:31;;;;;;;33.90;19.77;;;6.30;99.90;;;;;;5074115;28;20419;-72
2023/01/30 05:53:57;;;;;;;33.90;19.17;;;6.30;99.90;;;;;;5073646;28;20432;-72
2023/01/30 05:56:23;;;;;;;35.70;20.03;;;6.30;99.90;;;;;;5073910;28;20426;-72
2023/01/30 05:58:55;;;;;;;30.40;19.65;;;6.30;99.90;;;;;;5073926;28;20452;-71
2023/01/30 06:01:28;;;;;;;34.23;19.70;;;6.40;99.90;;;;;;5073634;28;20403;-73
2023/01/30 06:03:54;;;;;;;31.83;20.85;;;6.40;99.90;;;;;;5073671;28;20379;-72
2023/01/30 06:06:21;;;;;;;28.80;19.10;;;6.40;99.90;;;;;;5073673;28;20392;-72
2023/01/30 06:08:47;;;;;;;29.50;18.60;;;6.40;99.90;;;;;;5073845;28;20393;-73
2023/01/30 06:11:15;;;;;;;33.38;19.23;;;6.50;99.90;;;;;;5073422;28;20384;-71
2023/01/30 06:13:41;;;;;;;32.08;18.40;;;6.50;99.90;;;;;;5073525;28;20714;-71
2023/01/30 06:16:08;;;;;;;30.33;18.90;;;6.50;99.90;;;;;;5073365;28;20392;-73
2023/01/30 06:18:34;;;;;;;29.27;18.45;;;6.50;99.90;;;;;;5073697;28;20421;-73
2023/01/30 06:21:00;;;;;;;32.47;17.70;;;6.60;99.90;;;;;;5072801;28;20438;-73
2023/01/30 06:23:26;;;;;;;30.90;18.30;;;6.60;99.90;;;;;;5073594;28;20467;-72
2023/01/30 06:25:53;;;;;;;28.70;17.30;;;6.60;99.90;;;;;;5073635;28;20816;-73
2023/01/30 06:28:20;;;;;;;30.70;18.05;;;6.70;99.90;;;;;;5074657;28;20394;-72
2023/01/30 06:30:46;;;;;;;30.05;18.48;;;6.70;99.90;;;;;;5074709;28;20386;-71
2023/01/30 06:33:12;;;;;;;31.38;16.85;;;6.70;99.90;;;;;;5074122;28;20453;-71
2023/01/30 06:35:38;;;;;;;26.80;17.20;;;6.70;99.90;;;;;;5074905;28;20415;-72
2023/01/30 06:38:04;;;;;;;30.05;16.38;;;6.70;99.90;;;;;;5075775;28;20411;-71
2023/01/30 06:40:30;;;;;;;24.45;16.75;;;6.80;99.90;;;;;;5074876;28;20467;-73
2023/01/30 06:42:56;;;;;;;28.93;16.70;;;6.80;99.90;;;;;;5074456;28;20522;-71
2023/01/30 06:45:21;;;;;;;28.10;16.97;;;6.80;99.90;;;;;;5073318;28;20387;-72
2023/01/30 06:47:52;;;;;;;25.50;17.10;;;6.80;99.90;;;;;;5072635;28;20462;-74
2023/01/30 06:50:21;;;;;;;32.53;20.08;;;6.90;99.90;;;;;;5073386;28;20390;-73
2023/01/30 06:52:48;;;;;;;23.73;14.77;;;6.90;99.90;;;;;;5072382;28;20398;-73
2023/01/30 06:55:15;;;;;;;30.88;16.30;;;6.90;99.90;;;;;;5073696;28;20470;-73
2023/01/30 06:57:42;;;;;;;70.23;39.97;;;6.90;99.90;;;;;;5073466;28;20471;-72
2023/01/30 07:00:11;;;;;;;28.35;14.95;;;7.00;99.90;;;;;;5073948;28;20406;-72
2023/01/30 07:02:36;;;;;;;33.20;15.68;;;7.00;99.90;;;;;;5073424;28;20414;-74
2023/01/30 07:05:04;;;;;;;22.88;15.45;;;7.00;99.90;;;;;;5073765;28;20827;-71
2023/01/30 07:07:30;;;;;;;24.02;15.60;;;7.00;99.90;;;;;;5074568;28;20717;-71
2023/01/30 07:09:57;;;;;;;25.33;15.15;;;7.00;99.90;;;;;;5075804;28;20383;-71
2023/01/30 07:12:23;;;;;;;26.33;15.52;;;7.10;99.90;;;;;;5085799;28;20461;-72
2023/01/30 07:14:50;;;;;;;26.85;15.50;;;7.10;99.90;;;;;;5078207;28;20482;-71
2023/01/30 07:17:16;;;;;;;27.63;14.93;;;7.10;99.90;;;;;;5072580;28;20522;-72
2023/01/30 07:19:42;;;;;;;25.63;16.55;;;7.10;99.90;;;;;;5071243;28;20402;-73
2023/01/30 07:22:08;;;;;;;26.95;16.60;;;7.10;99.90;;;;;;5076550;28;20399;-72
2023/01/30 07:24:33;;;;;;;23.30;16.43;;;7.20;99.90;;;;;;5074115;28;20395;-72
2023/01/30 07:26:59;;;;;;;35.20;18.27;;;7.20;99.90;;;;;;5074414;28;20390;-73
2023/01/30 07:29:24;;;;;;;27.80;17.40;;;7.20;99.90;;;;;;5073536;28;20922;-73
2023/01/30 07:31:50;;;;;;;31.50;17.60;;;7.20;99.90;;;;;;5072167;28;20407;-72
2023/01/30 07:34:16;;;;;;;31.97;16.90;;;7.20;99.90;;;;;;5072239;28;20472;-73
2023/01/30 07:36:41;;;;;;;27.57;16.97;;;7.30;99.90;;;;;;5071744;28;20376;-72
2023/01/30 07:39:08;;;;;;;28.10;16.60;;;7.30;99.90;;;;;;5072458;28;20453;-73
2023/01/30 07:41:34;;;;;;;25.77;17.30;;;7.30;99.90;;;;;;5072177;28;20907;-73
2023/01/30 07:44:00;;;;;;;27.88;17.25;;;7.30;99.90;;;;;;5072486;28;20417;-73
2023/01/30 07:46:33;;;;;;;29.00;17.70;;;7.30;99.90;;;;;;5071175;28;20427;-73
2023/01/30 07:49:00;;;;;;;24.65;16.23;;;7.30;99.90;;;;;;5072850;28;20383;-73
2023/01/30 07:53:53;;;;;;;22.23;15.20;;;7.30;99.90;;;;;;5029303;28;20427;-72
2023/01/30 07:56:22;;;;;;;27.50;16.03;;;7.30;99.90;;;;;;5031813;28;20941;-73
2023/01/30 07:58:48;;;;;;;28.00;15.43;;;7.30;99.90;;;;;;5031543;28;20870;-73
2023/01/30 08:01:14;;;;;;;28.00;16.00;;;7.30;99.90;;;;;;5030764;28;20498;-73
2023/01/30 08:03:40;;;;;;;26.50;15.77;;;7.20;99.90;;;;;;5031324;28;20930;-72
2023/01/30 08:06:06;;;;;;;28.38;15.70;;;7.10;99.90;;;;;;5030969;28;20779;-72
2023/01/30 08:08:32;;;;;;;27.98;16.05;;;7.10;99.90;;;;;;5031633;28;20386;-73
2023/01/30 08:10:57;;;;;;;28.35;15.35;;;7.10;99.90;;;;;;5030801;28;20450;-73
2023/01/30 08:13:23;;;;;;;26.70;14.80;;;7.10;99.90;;;;;;5031011;28;20387;-73
2023/01/30 08:15:49;;;;;;;27.93;15.60;;;7.10;99.90;;;;;;5038224;28;20391;-78
2023/01/30 08:18:15;;;;;;;26.08;15.70;;;7.10;99.90;;;;;;5044735;28;20387;-77
2023/01/30 08:20:41;;;;;;;28.00;15.65;;;7.00;99.90;;;;;;5048798;28;20430;-77
2023/01/30 08:23:07;;;;;;;27.35;15.85;;;7.00;99.90;;;;;;5021283;28;20758;-78
2023/01/30 08:25:34;;;;;;;28.25;16.42;;;7.10;99.90;;;;;;5013201;28;20381;-78
2023/01/30 08:28:00;;;;;;;28.90;16.60;;;7.00;99.90;;;;;;5031493;28;20426;-77
2023/01/30 08:30:27;;;;;;;28.08;17.25;;;7.10;99.90;;;;;;5033599;28;20387;-77
2023/01/30 08:32:52;;;;;;;36.05;17.15;;;7.10;99.90;;;;;;5030930;28;20390;-78
2023/01/30 08:35:18;;;;;;;30.07;16.87;;;7.10;99.90;;;;;;5031409;28;20894;-78
2023/01/30 08:37:44;;;;;;;30.17;17.20;;;7.20;99.90;;;;;;5031332;28;20390;-78
2023/01/30 08:40:10;;;;;;;31.23;16.50;;;7.40;99.90;;;;;;5011391;28;20927;-78
2023/01/30 08:42:36;;;;;;;32.60;16.80;;;7.50;97.50;;;;;;5010189;28;20395;-78
2023/01/30 08:45:02;;;;;;;25.90;16.20;;;7.70;94.30;;;;;;5010603;28;20745;-76
2023/01/30 08:47:28;;;;;;;29.67;16.15;;;7.70;92.20;;;;;;5012458;28;20968;-78
2023/01/30 08:49:53;;;;;;;31.37;15.10;;;7.70;91.70;;;;;;5030471;28;20438;-79
2023/01/30 08:52:19;;;;;;;30.80;15.63;;;7.60;92.20;;;;;;5028879;28;20407;-78
2023/01/30 08:54:45;;;;;;;26.27;13.88;;;7.60;92.60;;;;;;5030836;28;20771;-77
2023/01/30 08:57:12;;;;;;;22.30;14.20;;;7.60;89.80;;;;;;5030609;28;20805;-77
2023/01/30 08:59:38;;;;;;;30.40;12.75;;;7.60;89.70;;;;;;5033429;28;20415;-77
2023/01/30 09:02:03;;;;;;;22.75;11.35;;;7.70;87.50;;;;;;5033525;28;20453;-77
2023/01/30 09:04:29;;;;;;;23.08;10.93;;;7.80;83.40;;;;;;5034311;28;20382;-74
2023/01/30 09:06:55;;;;;;;24.02;10.68;;;7.90;81.20;;;;;;5031778;28;20433;-73
2023/01/30 09:09:20;;;;;;;21.83;10.48;;;8.00;81.30;;;;;;5028817;28;20414;-72
2023/01/30 09:11:47;;;;;;;26.73;9.93;;;8.00;78.30;;;;;;5032064;28;20398;-72
2023/01/30 09:14:13;;;;;;;21.45;8.73;;;8.00;77.00;;;;;;5034687;28;20446;-71
2023/01/30 09:16:39;;;;;;;22.80;9.05;;;8.00;74.80;;;;;;5041725;28;20399;-72
2023/01/30 09:19:04;;;;;;;23.38;8.27;;;8.10;73.90;;;;;;5034819;28;20444;-73
2023/01/30 09:21:31;;;;;;;21.65;8.40;;;8.10;74.00;;;;;;5041929;28;20403;-72
2023/01/30 09:23:56;;;;;;;21.27;8.07;;;8.10;73.70;;;;;;5044063;28;20470;-72
2023/01/30 09:26:22;;;;;;;24.52;8.63;;;8.10;72.40;;;;;;5033305;28;20491;-73
2023/01/30 09:28:48;;;;;;;17.75;6.60;;;8.10;72.00;;;;;;5031986;28;20398;-73
2023/01/30 09:31:13;;;;;;;21.83;6.80;;;8.10;66.50;;;;;;5030916;28;20394;-74
2023/01/30 09:33:39;;;;;;;20.77;6.80;;;8.10;66.40;;;;;;5032438;28;20411;-74
2023/01/30 09:36:05;;;;;;;23.77;5.90;;;8.20;66.80;;;;;;5032438;28;20391;-74
2023/01/30 09:38:31;;;;;;;24.65;6.40;;;8.30;62.50;;;;;;5029947;28;20501;-72
2023/01/30 09:41:32;;;;;;;21.45;5.30;;;8.30;59.20;;;;;;5031308;28;20415;-72
2023/01/30 09:44:19;;;;;;;22.33;5.55;;;8.30;59.00;;;;;;5013044;28;20418;-72
2023/01/30 09:47:01;;;;;;;28.17;5.32;;;8.20;59.10;;;;;;5030806;28;20882;-73
2023/01/30 09:49:44;;;;;;;24.55;5.20;;;8.20;57.50;;;;;;5011007;28;20397;-73
2023/01/30 09:52:38;;;;;;;23.35;4.78;;;8.30;56.20;;;;;;5031256;28;20500;-73
2023/01/30 09:55:18;;;;;;;25.63;5.32;;;8.50;54.90;;;;;;5031008;28;20417;-73
2023/01/30 09:57:46;;;;;;;19.13;4.90;;;8.60;52.50;;;;;;5031682;28;20862;-74
2023/01/30 10:00:36;;;;;;;14.63;3.90;;;8.60;50.50;;;;;;5033435;28;20418;-71
2023/01/30 10:03:13;;;;;;;22.95;4.65;;;8.60;51.40;;;;;;5029492;28;20909;-72
2023/01/30 10:05:55;;;;;;;18.88;4.13;;;8.60;51.40;;;;;;5031129;28;20527;-73
2023/01/30 10:08:45;;;;;;;23.17;4.63;;;8.60;52.40;;;;;;5031445;28;20378;-72
2023/01/30 10:11:20;;;;;;;20.10;4.43;;;8.70;49.70;;;;;;5029638;28;20435;-73
2023/01/30 10:14:10;;;;;;;20.90;4.20;;;8.70;48.50;;;;;;5031211;28;20486;-73
2023/01/30 10:16:57;;;;;;;25.13;4.55;;;8.70;48.60;;;;;;5031047;28;20513;-72
2023/01/30 10:19:29;;;;;;;19.30;4.63;;;8.60;47.20;;;;;;4990199;28;20406;-73
2023/01/30 10:22:06;;;;;;;23.48;4.60;;;8.50;48.30;;;;;;5030879;28;20475;-73
2023/01/30 10:25:17;;;;;;;23.48;5.38;;;8.40;48.40;;;;;;5026113;28;20393;-73
2023/01/30 10:27:57;;;;;;;25.85;4.38;;;8.40;46.30;;;;;;5002278;28;20493;-73
2023/01/30 10:30:23;;;;;;;19.13;4.78;;;8.40;48.10;;;;;;5030454;28;20407;-72
2023/01/30 10:32:55;;;;;;;22.63;4.55;;;8.30;48.20;;;;;;5032706;28;20383;-72
2023/01/30 10:35:25;;;;;;;18.33;3.67;;;8.30;48.30;;;;;;5027159;28;20391;-72
2023/01/30 10:38:06;;;;;;;14.93;3.10;;;8.30;45.30;;;;;;5033070;28;20474;-72
2023/01/30 10:40:41;;;;;;;15.80;2.95;;;8.30;47.20;;;;;;5032903;28;20975;-72
2023/01/30 10:43:26;;;;;;;28.75;5.25;;;8.20;48.00;;;;;;5032790;28;20403;-73
2023/01/30 10:46:29;;;;;;;18.35;3.63;;;8.20;48.30;;;;;;5033654;28;20496;-72
2023/01/30 10:49:04;;;;;;;24.13;3.38;;;8.20;47.60;;;;;;5022498;28;20740;-72
2023/01/30 10:51:36;;;;;;;25.38;4.30;;;8.10;47.00;;;;;;5032437;28;20394;-72
2023/01/30 10:54:13;;;;;;;21.63;4.85;;;8.20;45.60;;;;;;5032469;28;20892;-73
2023/01/30 10:57:20;;;;;;;21.20;4.20;;;8.30;42.70;;;;;;5031430;28;20481;-72
2023/01/30 10:59:53;;;;;;;19.00;3.95;;;8.50;42.70;;;;;;5033048;28;20422;-72
2023/01/30 11:02:56;;;;;;;23.88;4.25;;;8.40;42.80;;;;;;5032199;28;20423;-72
2023/01/30 11:05:26;;;;;;;21.50;3.77;;;8.40;41.70;;;;;;5030862;28;20390;-72
2023/01/30 11:07:51;;;;;;;24.10;4.40;;;8.40;42.80;;;;;;5034740;28;20403;-73
2023/01/30 11:10:23;;;;;;;20.23;4.07;;;8.40;42.90;;;;;;5031770;28;20438;-74
2023/01/30 11:12:59;;;;;;;19.20;4.35;;;8.40;41.20;;;;;;5031926;28;20379;-73
2023/01/30 11:15:43;;;;;;;27.55;4.97;;;8.40;42.50;;;;;;5032641;28;20462;-73
2023/01/30 11:18:09;;;;;;;27.00;5.07;;;8.60;42.10;;;;;;5033267;28;20379;-72
2023/01/30 11:20:40;;;;;;;20.65;4.40;;;8.60;40.50;;;;;;5032756;28;20763;-72
2023/01/30 11:23:31;;;;;;;23.15;4.60;;;8.80;38.60;;;;;;5031956;28;20428;-73
2023/01/30 11:25:58;;;;;;;20.63;4.43;;;8.90;37.60;;;;;;5032348;28;20383;-73
2023/01/30 11:28:25;;;;;;;17.40;3.97;;;8.90;37.90;;;;;;5031857;28;20383;-72
2023/01/30 11:30:57;;;;;;;30.42;4.20;;;8.90;37.50;;;;;;5030041;28;20437;-73
2023/01/30 11:33:37;;;;;;;23.17;4.10;;;8.90;37.10;;;;;;5031885;28;20444;-73
2023/01/30 11:36:29;;;;;;;24.92;3.92;;;9.00;37.50;;;;;;5031960;28;20420;-73
2023/01/30 11:39:02;;;;;;;23.45;4.20;;;9.00;36.00;;;;;;5032395;28;20375;-72
2023/01/30 11:41:28;;;;;;;17.98;3.92;;;8.90;37.00;;;;;;5031865;28;20410;-72
2023/01/30 11:44:03;;;;;;;28.30;4.47;;;8.90;37.10;;;;;;5031470;28;20799;-73
2023/01/30 11:46:41;;;;;;;27.02;4.80;;;8.90;37.00;;;;;;5031167;28;20418;-74
2023/01/30 11:49:14;;;;;;;16.73;3.73;;;8.90;37.30;;;;;;5031344;28;20392;-72
2023/01/30 11:51:43;;;;;;;16.88;4.13;;;8.60;38.20;;;;;;5029910;28;20805;-76
2023/01/30 11:54:21;;;;;;;19.70;3.70;;;8.60;38.30;;;;;;5031787;28;20407;-74
2023/01/30 11:56:55;;;;;;;24.17;4.10;;;8.50;38.50;;;;;;5031544;28;20401;-75
2023/01/30 11:59:30;;;;;;;22.20;4.20;;;8.50;38.50;;;;;;5031453;28;20395;-75
2023/01/30 12:02:16;;;;;;;20.55;4.10;;;8.60;38.10;;;;;;5030424;28;20406;-75
2023/01/30 12:04:44;;;;;;;19.83;3.88;;;8.50;37.10;;;;;;5031895;28;20779;-74
2023/01/30 12:07:26;;;;;;;19.35;2.83;;;8.70;36.20;;;;;;5032636;28;20857;-75
2023/01/30 12:09:53;;;;;;;10.00;3.60;;;8.50;36.70;;;;;;5034024;28;20506;-72
2023/01/30 12:12:44;;;;;;;16.77;3.05;;;8.40;38.50;;;;;;5039616;28;20395;-71
2023/01/30 12:15:15;;;;;;;20.80;3.60;;;8.40;36.60;;;;;;5033172;28;20438;-73
2023/01/30 12:18:00;;;;;;;17.27;3.90;;;8.40;37.80;;;;;;5040595;28;20394;-71
2023/01/30 12:20:56;;;;;;;22.77;4.75;;;8.50;35.90;;;;;;5035190;28;20444;-72
2023/01/30 12:23:59;;;;;;;17.77;3.80;;;8.60;36.00;;;;;;5030984;28;20889;-72
2023/01/30 12:26:32;;;;;;;20.10;4.13;;;8.90;35.00;;;;;;5030872;28;20382;-73
2023/01/30 12:29:16;;;;;;;19.17;3.75;;;8.90;34.60;;;;;;5031221;28;20402;-73
2023/01/30 12:32:06;;;;;;;26.77;4.43;;;9.20;32.10;;;;;;5030906;28;20413;-73
2023/01/30 12:34:31;;;;;;;17.70;4.33;;;9.30;31.40;;;;;;5031301;28;20448;-73
2023/01/30 12:37:34;;;;;;;15.90;3.20;;;9.20;30.90;;;;;;5031282;28;20379;-73
2023/01/30 12:40:34;;;;;;;26.60;4.95;;;9.30;30.70;;;;;;5030644;28;20403;-71
2023/01/30 12:43:21;;;;;;;20.88;4.50;;;9.40;31.50;;;;;;5029629;28;20876;-71
2023/01/30 12:46:11;;;;;;;18.98;3.50;;;9.30;31.00;;;;;;5031482;28;20430;-72
2023/01/30 12:48:42;;;;;;;26.10;4.10;;;9.20;30.60;;;;;;5031333;28;20382;-72
2023/01/30 12:51:20;;;;;;;22.73;4.13;;;9.10;31.10;;;;;;5031316;28;20406;-72
2023/01/30 12:54:34;;;;;;;13.98;2.63;;;9.00;32.90;;;;;;5030777;28;20395;-72
2023/01/30 12:57:19;;;;;;;20.55;3.45;;;8.80;33.10;;;;;;5026027;28;20485;-72
2023/01/30 13:00:13;;;;;;;19.50;4.10;;;8.90;33.20;;;;;;5031055;28;20763;-72
2023/01/30 13:02:42;;;;;;;16.80;3.85;;;9.10;32.20;;;;;;5031372;28;20392;-74
2023/01/30 13:05:44;;;;;;;21.10;3.42;;;9.10;33.20;;;;;;5031600;28;20383;-73
2023/01/30 13:08:25;;;;;;;10.75;3.25;;;8.90;32.50;;;;;;5031112;28;20915;-71
2023/01/30 13:10:57;;;;;;;20.73;5.30;;;8.70;33.00;;;;;;5030667;28;20393;-72
2023/01/30 13:13:41;;;;;;;24.90;7.20;;;8.70;34.10;;;;;;5030804;28;20387;-72